Time;durP1;ratioP1;P1;durP2;ratioP2;P2;SDS_P1;SDS_P2;PMS_P1;PMS_P2;Temp;Humidity;BMP_temperature;BMP_pressure;BME280_temperature;BME280_humidity;BME280_pressure;Samples;Min_cycle;Max_cycle;Signal;HPM_P1;HPM_P2
2023/05/26 00:02:13;;;;;;;0.08;0.08;;;;;;;12.77;57.86;103099.06;5076999;28;20047;-83
2023/05/26 00:04:43;;;;;;;0.00;0.00;;;;;;;12.76;57.01;103097.28;5073267;28;20032;-82
2023/05/26 00:07:09;;;;;;;0.03;0.03;;;;;;;12.74;57.47;103101.69;5070986;28;20580;-83
2023/05/26 00:09:35;;;;;;;0.10;0.10;;;;;;;12.69;59.14;103094.59;5076849;28;20031;-83
2023/05/26 00:12:01;;;;;;;0.10;0.10;;;;;;;12.69;58.78;103102.56;5076380;28;20028;-83
2023/05/26 00:14:27;;;;;;;0.10;0.10;;;;;;;12.67;57.56;103102.53;5074103;28;20027;-82
2023/05/26 00:16:54;;;;;;;0.10;0.10;;;;;;;12.66;58.10;103099.88;5073959;28;20437;-82
2023/05/26 00:19:21;;;;;;;0.10;0.10;;;;;;;12.64;57.60;103106.97;5081815;28;20031;-82
2023/05/26 00:21:47;;;;;;;0.10;0.10;;;;;;;12.61;57.98;103103.38;5077330;28;20028;-83
2023/05/26 00:24:13;;;;;;;0.10;0.10;;;;;;;12.57;58.44;103109.56;5080103;28;20036;-83
2023/05/26 00:26:39;;;;;;;0.10;0.10;;;;;;;12.55;57.84;103103.34;5078164;28;20027;-83
2023/05/26 00:29:06;;;;;;;0.13;0.13;;;;;;;12.51;58.57;103105.94;5078735;28;20097;-83
2023/05/26 00:31:32;;;;;;;0.10;0.10;;;;;;;12.49;58.87;103100.63;5077806;28;20099;-82
2023/05/26 00:33:58;;;;;;;0.10;0.10;;;;;;;12.49;58.66;103107.72;5073595;28;20151;-81
2023/05/26 00:36:25;;;;;;;0.00;0.00;;;;;;;12.44;59.13;103105.03;5082184;28;20040;-81
2023/05/26 00:38:51;;;;;;;0.10;0.10;;;;;;;12.41;59.63;103110.28;5095966;28;20520;-80
2023/05/26 00:41:17;;;;;;;0.05;0.05;;;;;;;12.41;58.27;103118.28;5082193;28;20036;-83
2023/05/26 00:43:44;;;;;;;0.08;0.08;;;;;;;12.39;58.93;103122.72;5083837;28;20031;-82
2023/05/26 00:46:10;;;;;;;0.10;0.10;;;;;;;12.34;58.82;103119.13;5087885;28;20028;-82
2023/05/26 00:48:36;;;;;;;0.10;0.10;;;;;;;12.29;59.72;103121.72;5085675;28;20025;-83
2023/05/26 00:51:05;;;;;;;0.20;0.20;;;;;;;12.28;59.59;103120.81;5088431;28;20034;-83
2023/05/26 00:53:31;;;;;;;0.30;0.30;;;;;;;12.27;59.29;103118.16;5088586;28;20020;-84
2023/05/26 00:55:57;;;;;;;0.10;0.10;;;;;;;12.24;59.56;103116.34;5083744;28;20044;-82
2023/05/26 00:58:24;;;;;;;0.03;0.03;;;;;;;12.22;60.38;103115.44;5082927;28;20051;-83
2023/05/26 01:00:50;;;;;;;1.00;0.95;;;;;;;12.22;59.52;103114.56;5085938;28;20498;-85
2023/05/26 01:03:18;;;;;;;0.10;0.10;;;;;;;12.20;60.06;103108.34;5084045;28;20021;-84
2023/05/26 01:05:44;;;;;;;0.10;0.10;;;;;;;12.17;59.47;103111.84;5083454;28;20021;-81
2023/05/26 01:08:10;;;;;;;0.10;0.10;;;;;;;12.18;58.58;103110.97;5086290;28;20047;-84
2023/05/26 01:10:36;;;;;;;0.10;0.10;;;;;;;12.16;59.04;103115.38;5083234;28;20032;-83
2023/05/26 01:13:08;;;;;;;0.10;0.10;;;;;;;12.13;59.89;103115.38;5080965;28;20033;-84
2023/05/26 01:15:40;;;;;;;0.10;0.10;;;;;;;12.14;58.92;103119.81;5074416;28;20021;-82
2023/05/26 01:18:13;;;;;;;0.10;0.10;;;;;;;12.13;58.92;103118.03;5078225;28;20033;-85
2023/05/26 01:21:05;;;;;;;0.10;0.10;;;;;;;12.09;59.30;103113.56;5073981;28;20103;-82
2023/05/26 01:26:42;;;;;;;0.10;0.10;;;;;;;12.06;59.53;103116.19;5115293;27;20992;-81
2023/05/26 01:29:12;;;;;;;0.10;0.10;;;;;;;11.97;59.77;103109.91;5112951;28;20039;-81
2023/05/26 01:31:39;;;;;;;0.10;0.10;;;;;;;11.95;58.96;103118.66;5098436;28;20491;-81
2023/05/26 01:34:06;;;;;;;0.10;0.10;;;;;;;11.89;60.29;103116.84;5092120;28;20028;-81
2023/05/26 01:36:32;;;;;;;0.10;0.10;;;;;;;11.86;59.60;103119.47;5096511;28;20028;-81
2023/05/26 01:38:59;;;;;;;0.10;0.10;;;;;;;11.84;60.27;103118.56;5094950;28;20032;-80
2023/05/26 01:41:39;;;;;;;0.10;0.10;;;;;;;11.83;60.71;103122.09;5093685;28;20359;-81
2023/05/26 01:44:16;;;;;;;0.10;0.10;;;;;;;11.80;60.05;103122.03;5092302;28;20396;-81
2023/05/26 01:46:47;;;;;;;2.03;0.40;;;;;;;11.77;59.93;103122.03;5094975;28;20444;-81
2023/05/26 01:49:15;;;;;;;0.10;0.10;;;;;;;11.72;60.42;103126.41;5096228;28;20028;-81
2023/05/26 01:51:47;;;;;;;0.10;0.10;;;;;;;11.71;58.91;103127.28;5111944;28;20027;-79
2023/05/26 01:54:16;;;;;;;;;;;;;;;11.76;59.73;103129.13;5110236;28;20504;-80
2023/05/26 01:56:44;;;;;;;0.10;0.10;;;;;;;11.62;60.19;103123.63;5105686;28;20385;-80
2023/05/26 01:59:11;;;;;;;0.10;0.10;;;;;;;11.60;60.59;103130.69;5094336;28;20039;-81
2023/05/26 02:01:37;;;;;;;0.85;0.85;;;;;;;11.58;60.38;103132.44;5090508;28;20022;-81
2023/05/26 02:04:04;;;;;;;0.10;0.10;;;;;;;11.59;60.65;103136.88;5094320;28;20039;-80
2023/05/26 02:06:30;;;;;;;0.10;0.10;;;;;;;11.59;60.24;103147.50;5094403;28;20040;-81
2023/05/26 02:08:57;;;;;;;0.28;0.28;;;;;;;11.57;60.19;103140.38;5093706;28;20056;-82
2023/05/26 02:11:23;;;;;;;0.20;0.20;;;;;;;11.56;60.06;103136.81;5089662;28;20025;-82
2023/05/26 02:13:49;;;;;;;0.00;0.00;;;;;;;11.55;61.12;103134.16;5092736;28;20053;-80
2023/05/26 02:16:16;;;;;;;0.80;0.80;;;;;;;11.55;60.08;103145.69;5092564;28;20040;-82
2023/05/26 02:18:45;;;;;;;0.10;0.10;;;;;;;11.54;60.76;103143.88;5093324;28;20039;-81
2023/05/26 02:21:12;;;;;;;0.40;0.40;;;;;;;11.52;60.92;103150.94;5093190;28;20515;-81
2023/05/26 02:23:38;;;;;;;0.10;0.10;;;;;;;11.51;60.35;103145.63;5096616;28;20028;-80
2023/05/26 02:26:04;;;;;;;1.35;0.75;;;;;;;11.51;60.69;103143.84;5089624;28;20082;-81
2023/05/26 02:28:30;;;;;;;4.53;2.33;;;;;;;11.48;60.94;103149.13;5091542;28;20047;-81
2023/05/26 02:30:56;;;;;;;0.10;0.10;;;;;;;11.48;60.80;103147.34;5095853;28;20024;-81
2023/05/26 02:33:22;;;;;;;0.10;0.10;;;;;;;11.49;60.38;103153.56;5094107;28;20041;-81
2023/05/26 02:35:48;;;;;;;0.10;0.10;;;;;;;11.47;61.13;103149.97;5091493;28;20024;-81
2023/05/26 02:38:14;;;;;;;0.10;0.10;;;;;;;11.47;60.50;103147.31;5082149;28;20044;-81
2023/05/26 02:40:41;;;;;;;0.20;0.20;;;;;;;11.47;61.17;103149.97;5078437;28;20029;-81
2023/05/26 02:43:07;;;;;;;0.10;0.10;;;;;;;11.45;61.51;103157.03;5080224;28;20032;-79
2023/05/26 02:45:33;;;;;;;0.10;0.10;;;;;;;11.44;60.71;103152.59;5077022;28;20025;-81
2023/05/26 02:47:59;;;;;;;0.05;0.05;;;;;;;11.44;61.10;103149.94;5076251;28;20036;-81
2023/05/26 02:50:25;;;;;;;0.10;0.10;;;;;;;11.45;60.90;103151.72;5077109;28;20063;-81
2023/05/26 02:52:51;;;;;;;0.10;0.10;;;;;;;11.43;61.69;103146.41;5092940;28;20091;-79
2023/05/26 02:55:18;;;;;;;0.10;0.10;;;;;;;11.43;61.77;103148.16;5090684;28;20036;-80
2023/05/26 02:57:44;;;;;;;0.20;0.20;;;;;;;11.42;61.33;103154.34;5077075;28;20050;-81
2023/05/26 03:00:11;;;;;;;0.10;0.10;;;;;;;11.39;60.84;103162.25;5075446;28;20257;-81
2023/05/26 03:02:38;;;;;;;0.20;0.20;;;;;;;11.36;61.11;103168.41;5077762;28;20039;-81
2023/05/26 03:05:05;;;;;;;0.00;0.00;;;;;;;11.36;61.16;103170.19;5075739;28;20016;-81
2023/05/26 03:07:31;;;;;;;0.10;0.10;;;;;;;11.31;61.09;103163.06;5075113;28;20043;-81
2023/05/26 03:09:57;;;;;;;0.10;0.10;;;;;;;11.29;60.82;103156.81;5075365;28;20040;-81
2023/05/26 03:12:23;;;;;;;0.10;0.10;;;;;;;11.27;62.10;103161.22;5074833;28;20396;-81
2023/05/26 03:14:50;;;;;;;0.10;0.10;;;;;;;11.27;61.78;103157.69;5074047;28;20444;-81
2023/05/26 03:17:16;;;;;;;0.20;0.20;;;;;;;11.25;62.04;103160.31;5075784;28;20033;-81
2023/05/26 03:19:43;;;;;;;0.10;0.10;;;;;;;11.23;61.61;103159.38;5074485;28;20040;-81
2023/05/26 03:22:10;;;;;;;0.10;0.10;;;;;;;11.23;61.36;103156.75;5075398;28;20025;-81
2023/05/26 03:24:36;;;;;;;0.15;0.15;;;;;;;11.23;61.36;103156.75;5074965;28;20076;-81
2023/05/26 03:27:02;;;;;;;0.08;0.08;;;;;;;11.23;61.17;103159.38;5074441;28;20036;-80
2023/05/26 03:29:30;;;;;;;0.10;0.10;;;;;;;11.20;61.76;103154.03;5073055;28;20021;-81
2023/05/26 03:31:56;;;;;;;0.10;0.10;;;;;;;11.19;61.31;103154.91;5072684;28;20035;-79
2023/05/26 03:34:24;;;;;;;0.10;0.10;;;;;;;11.20;60.97;103163.75;5072787;28;20430;-79
2023/05/26 03:36:50;;;;;;;0.55;0.55;;;;;;;11.17;61.68;103161.97;5073885;28;20058;-81
2023/05/26 03:39:16;;;;;;;0.10;0.10;;;;;;;11.17;61.72;103172.56;5080175;28;20526;-80
2023/05/26 03:41:43;;;;;;;0.10;0.10;;;;;;;11.11;62.62;103162.75;5075012;28;20033;-80
2023/05/26 03:44:10;;;;;;;0.55;0.55;;;;;;;11.11;62.13;103162.75;5075455;28;20028;-80
2023/05/26 03:46:36;;;;;;;0.10;0.10;;;;;;;11.11;61.47;103161.88;5077297;28;20103;-81
2023/05/26 03:49:03;;;;;;;0.10;0.10;;;;;;;11.10;61.55;103160.97;5074266;28;20499;-81
2023/05/26 03:51:30;;;;;;;0.00;0.00;;;;;;;11.08;61.55;103168.03;5076823;28;20054;-81
2023/05/26 03:53:56;;;;;;;2.67;1.10;;;;;;;11.07;61.70;103170.66;5076283;28;20520;-81
2023/05/26 03:56:22;;;;;;;0.10;0.10;;;;;;;11.07;61.56;103166.22;5076870;28;20402;-81
2023/05/26 03:58:48;;;;;;;0.10;0.10;;;;;;;11.08;61.51;103173.31;5077462;28;20556;-81
2023/05/26 04:01:15;;;;;;;0.10;0.10;;;;;;;11.06;63.27;103176.81;5075908;28;20032;-80
2023/05/26 04:03:42;;;;;;;0.10;0.10;;;;;;;11.07;62.21;103176.84;5081829;28;20024;-81
2023/05/26 04:06:08;;;;;;;0.10;0.10;;;;;;;11.09;61.61;103177.75;5089896;28;20037;-79
2023/05/26 04:08:34;;;;;;;0.10;0.10;;;;;;;11.08;62.33;103175.97;5096456;28;20052;-80
2023/05/26 04:11:01;;;;;;;0.10;0.10;;;;;;;11.12;62.11;103171.63;5086582;28;20040;-81
2023/05/26 04:13:27;;;;;;;0.10;0.10;;;;;;;11.12;62.01;103179.56;5080569;28;20040;-80
2023/05/26 04:15:53;;;;;;;0.10;0.10;;;;;;;11.12;62.21;103172.50;5085447;28;20028;-80
2023/05/26 04:18:19;;;;;;;0.10;0.10;;;;;;;11.11;62.70;103175.13;5087749;28;20419;-81
2023/05/26 04:20:47;;;;;;;0.20;0.20;;;;;;;11.16;61.95;103178.75;5078287;28;20024;-80
2023/05/26 04:23:13;;;;;;;0.28;0.28;;;;;;;11.14;62.09;103181.38;5076045;28;20029;-81
2023/05/26 04:25:40;;;;;;;0.10;0.10;;;;;;;11.19;61.91;103186.75;5073509;28;20043;-79
2023/05/26 04:28:07;;;;;;;0.10;0.10;;;;;;;11.21;62.77;103185.00;5072127;28;20033;-79
2023/05/26 04:30:38;;;;;;;0.10;0.10;;;;;;;11.24;62.60;103179.75;5068726;28;20028;-81
2023/05/26 04:33:05;;;;;;;0.10;0.10;;;;;;;11.29;62.36;103171.84;5070246;28;20383;-79
2023/05/26 04:35:33;;;;;;;0.10;0.10;;;;;;;11.31;62.56;103176.34;5069809;28;20649;-80
2023/05/26 04:37:59;;;;;;;0.10;0.10;;;;;;;11.35;62.07;103184.31;5071037;28;20040;-79
2023/05/26 04:40:25;;;;;;;0.10;0.10;;;;;;;11.40;62.44;103185.28;5078643;28;20037;-81
2023/05/26 04:42:51;;;;;;;0.10;0.10;;;;;;;11.39;62.47;103184.41;5073251;28;20041;-81
2023/05/26 04:45:18;;;;;;;0.10;0.10;;;;;;;11.44;61.78;103192.41;5077931;28;20025;-81
2023/05/26 04:47:45;;;;;;;0.10;0.10;;;;;;;11.45;62.07;103191.53;5074552;28;20036;-80
2023/05/26 04:50:16;;;;;;;0.10;0.10;;;;;;;11.49;62.50;103193.38;5074970;28;20036;-81
2023/05/26 04:52:42;;;;;;;0.10;0.10;;;;;;;11.53;62.14;103197.84;5073073;28;20037;-81
2023/05/26 04:55:09;;;;;;;0.10;0.10;;;;;;;11.56;62.56;103203.19;5072391;28;20415;-80
2023/05/26 04:57:35;;;;;;;0.10;0.10;;;;;;;11.60;62.43;103204.13;5073057;28;20036;-81
2023/05/26 05:00:05;;;;;;;0.00;0.00;;;;;;;11.62;61.48;103208.59;5073531;28;20106;-81
2023/05/26 05:02:31;;;;;;;0.10;0.10;;;;;;;11.66;61.87;103212.19;5074657;28;20039;-81
2023/05/26 05:04:57;;;;;;;0.10;0.10;;;;;;;11.70;62.73;103210.47;5084082;28;20058;-81
2023/05/26 05:07:23;;;;;;;0.10;0.10;;;;;;;11.77;62.37;103222.97;5076779;28;20032;-80
2023/05/26 05:09:50;;;;;;;0.00;0.00;;;;;;;11.78;61.60;103215.00;5083234;28;20067;-81
2023/05/26 05:12:16;;;;;;;0.20;0.20;;;;;;;11.79;61.51;103222.09;5083715;28;20024;-81
2023/05/26 05:14:42;;;;;;;0.10;0.10;;;;;;;11.85;61.67;103221.31;5089561;28;20070;-81
2023/05/26 05:17:08;;;;;;;0.13;0.13;;;;;;;11.92;61.42;103228.44;5088356;28;20031;-81
2023/05/26 05:19:34;;;;;;;0.00;0.00;;;;;;;11.95;60.91;103228.50;5087185;28;20028;-81
2023/05/26 05:22:00;;;;;;;0.10;0.10;;;;;;;11.97;60.74;103233.88;5078024;28;20414;-81
2023/05/26 05:24:26;;;;;;;0.15;0.15;;;;;;;12.02;61.35;103225.97;5083621;28;20040;-81
2023/05/26 05:26:52;;;;;;;0.10;0.10;;;;;;;12.02;61.78;103223.31;5077263;28;20045;-81
2023/05/26 05:29:18;;;;;;;3.42;3.13;;;;;;;12.04;60.81;103230.41;5084443;28;20024;-81
2023/05/26 05:31:44;;;;;;;0.10;0.10;;;;;;;12.08;61.19;103232.22;5074886;28;20109;-81
2023/05/26 05:34:10;;;;;;;0.10;0.10;;;;;;;12.13;61.28;103234.94;5084137;28;20035;-82
2023/05/26 05:36:36;;;;;;;0.20;0.20;;;;;;;12.16;60.93;103232.31;5075486;28;20037;-81
2023/05/26 05:39:02;;;;;;;0.10;0.10;;;;;;;12.21;60.93;103235.94;5074423;28;20043;-82
2023/05/26 05:41:28;;;;;;;0.10;0.10;;;;;;;12.27;60.32;103232.44;5078513;28;20016;-81
2023/05/26 05:43:56;;;;;;;0.10;0.10;;;;;;;12.29;60.47;103241.34;5078476;28;20028;-81
2023/05/26 05:46:24;;;;;;;0.10;0.10;;;;;;;12.33;61.08;103235.19;5076431;28;20032;-81
2023/05/26 05:48:50;;;;;;;0.10;0.10;;;;;;;12.34;60.97;103244.06;5077946;28;20029;-81
2023/05/26 05:51:16;;;;;;;0.10;0.10;;;;;;;12.40;60.42;103234.38;5078516;28;20048;-81
2023/05/26 05:53:42;;;;;;;0.10;0.10;;;;;;;12.44;60.59;103230.88;5074079;28;20033;-81
2023/05/26 05:56:09;;;;;;;0.10;0.10;;;;;;;12.49;60.33;103238.91;5073190;28;20020;-82
2023/05/26 05:58:36;;;;;;;0.00;0.00;;;;;;;12.53;60.52;103235.38;5080265;28;20431;-81
2023/05/26 06:01:02;;;;;;;0.10;0.10;;;;;;;12.58;60.11;103249.63;5075450;28;20028;-81
2023/05/26 06:03:28;;;;;;;0.10;0.10;;;;;;;12.66;60.44;103248.81;5084056;28;20031;-81
2023/05/26 06:05:54;;;;;;;0.10;0.10;;;;;;;12.71;60.68;103248.00;5074910;28;20498;-81
2023/05/26 06:08:20;;;;;;;0.10;0.10;;;;;;;12.82;60.22;103247.19;5071431;28;20036;-82
2023/05/26 06:10:46;;;;;;;0.10;0.10;;;;;;;12.87;59.95;103246.38;5069990;28;20029;-82
2023/05/26 06:13:12;;;;;;;0.20;0.20;;;;;;;12.94;59.28;103247.31;5078675;28;20040;-87
2023/05/26 06:15:38;;;;;;;0.10;0.10;;;;;;;12.93;59.64;103246.41;5088016;28;20028;-81
2023/05/26 06:18:04;;;;;;;0.10;0.10;;;;;;;12.99;59.25;103240.25;5080086;28;20048;-80
2023/05/26 06:20:30;;;;;;;0.03;0.03;;;;;;;13.07;58.66;103245.63;5078808;28;20036;-81
2023/05/26 06:22:56;;;;;;;0.10;0.10;;;;;;;13.06;58.75;103249.16;5079672;28;20036;-81
2023/05/26 06:25:22;;;;;;;0.60;0.43;;;;;;;13.12;59.09;103249.22;5078739;28;20176;-80
2023/05/26 06:27:48;;;;;;;0.20;0.20;;;;;;;13.21;58.85;103259.06;5078810;28;20028;-81
2023/05/26 06:30:15;;;;;;;0.20;0.20;;;;;;;13.28;58.86;103255.53;5078700;28;20403;-82
2023/05/26 06:32:41;;;;;;;0.10;0.10;;;;;;;13.34;59.07;103255.59;5079675;28;20032;-81
2023/05/26 06:35:09;;;;;;;0.10;0.10;;;;;;;13.47;58.63;103258.38;5079521;28;20043;-81
2023/05/26 06:37:35;;;;;;;0.38;0.38;;;;;;;13.58;58.84;103262.91;5077324;28;20111;-80
2023/05/26 06:40:01;;;;;;;0.13;0.13;;;;;;;13.67;58.03;103264.72;5080150;28;20495;-81
2023/05/26 06:42:27;;;;;;;2.15;1.95;;;;;;;13.73;58.03;103261.19;5080172;28;20111;-82
2023/05/26 06:44:53;;;;;;;0.10;0.10;;;;;;;13.78;58.08;103250.56;5078029;28;20047;-82
2023/05/26 06:47:23;;;;;;;0.10;0.10;;;;;;;13.78;57.64;103262.09;5086868;28;20040;-81
2023/05/26 06:49:49;;;;;;;0.10;0.10;;;;;;;13.71;57.27;103250.53;5078106;28;20036;-82
2023/05/26 06:52:17;;;;;;;0.25;0.25;;;;;;;13.80;57.14;103260.34;5078693;28;20024;-82
2023/05/26 06:54:43;;;;;;;0.10;0.10;;;;;;;13.89;57.61;103246.19;5076151;28;20032;-82
2023/05/26 06:57:09;;;;;;;0.73;0.73;;;;;;;14.02;57.41;103255.13;5079333;28;20456;-81
2023/05/26 06:59:35;;;;;;;0.40;0.40;;;;;;;14.18;57.44;103259.63;5081548;28;20029;-79
2023/05/26 07:02:02;;;;;;;1.25;1.17;;;;;;;14.35;57.12;103254.34;5095465;28;20052;-81
2023/05/26 07:04:28;;;;;;;0.10;0.10;;;;;;;14.45;56.45;103257.94;5089501;28;20024;-82
2023/05/26 07:06:54;;;;;;;0.10;0.10;;;;;;;14.52;56.24;103251.72;5081081;28;20037;-82
2023/05/26 07:09:21;;;;;;;0.30;0.30;;;;;;;14.60;56.18;103258.84;5080054;28;20044;-82
2023/05/26 07:11:47;;;;;;;0.28;0.28;;;;;;;14.59;55.67;103270.41;5081208;28;20070;-82
2023/05/26 07:14:13;;;;;;;0.22;0.22;;;;;;;14.64;55.92;103260.63;5079376;28;20029;-80
2023/05/26 07:16:39;;;;;;;0.10;0.10;;;;;;;14.69;55.93;103275.81;5075328;28;20064;-80
2023/05/26 07:19:05;;;;;;;0.10;0.10;;;;;;;14.72;55.48;103269.59;5080294;28;20055;-82
2023/05/26 07:21:31;;;;;;;0.43;0.43;;;;;;;14.72;55.29;103272.25;5078419;28;20033;-80
2023/05/26 07:23:57;;;;;;;0.10;0.10;;;;;;;14.68;54.59;103263.34;5077853;28;20036;-81
2023/05/26 07:26:23;;;;;;;0.10;0.10;;;;;;;14.63;54.36;103265.09;5080028;28;20055;-81
2023/05/26 07:28:50;;;;;;;0.10;0.10;;;;;;;14.59;55.01;103267.75;5078731;28;20028;-80
2023/05/26 07:31:17;;;;;;;0.10;0.10;;;;;;;14.52;54.74;103267.72;5075249;28;20483;-81
2023/05/26 07:33:43;;;;;;;0.30;0.30;;;;;;;14.49;55.08;103262.41;5077181;28;20028;-80
2023/05/26 07:36:09;;;;;;;0.30;0.30;;;;;;;14.45;55.30;103268.59;5078278;28;20016;-81
2023/05/26 07:38:35;;;;;;;0.10;0.10;;;;;;;14.43;55.37;103254.38;5078059;28;20055;-79
2023/05/26 07:41:01;;;;;;;0.10;0.10;;;;;;;14.42;55.11;103255.25;5077136;28;20044;-81
2023/05/26 07:43:27;;;;;;;0.10;0.10;;;;;;;14.42;55.22;103244.59;5076720;28;20480;-80
2023/05/26 07:45:53;;;;;;;0.10;0.10;;;;;;;14.40;55.18;103252.59;5076092;28;20051;-81
2023/05/26 07:48:20;;;;;;;0.43;0.43;;;;;;;14.39;55.03;103252.56;5077801;28;20036;-81
2023/05/26 07:50:46;;;;;;;25.23;1.08;;;;;;;14.42;54.94;103247.25;5077198;28;20024;-81
2023/05/26 07:53:12;;;;;;;0.10;0.10;;;;;;;14.46;54.82;103253.50;5075830;28;20032;-81
2023/05/26 07:55:40;;;;;;;0.20;0.20;;;;;;;14.53;54.75;103248.16;5076901;28;20510;-79
2023/05/26 07:58:10;;;;;;;0.10;0.10;;;;;;;14.61;54.54;103233.97;5077211;28;20036;-79
2023/05/26 08:00:37;;;;;;;0.10;0.10;;;;;;;14.66;54.26;103234.88;5074224;28;20036;-81
2023/05/26 08:03:03;;;;;;;0.10;0.10;;;;;;;14.78;54.19;103248.25;5078648;28;20052;-81
2023/05/26 08:05:30;;;;;;;0.75;0.75;;;;;;;14.92;54.27;103250.03;5079981;28;20036;-81
2023/05/26 08:07:56;;;;;;;0.75;0.75;;;;;;;15.06;54.27;103242.91;5078111;28;20032;-81
2023/05/26 08:10:23;;;;;;;0.10;0.10;;;;;;;15.13;53.05;103242.00;5082079;28;20043;-81
2023/05/26 08:12:51;;;;;;;0.10;0.10;;;;;;;15.18;52.79;103245.56;5076554;28;20028;-82
2023/05/26 08:15:17;;;;;;;0.10;0.10;;;;;;;15.33;53.08;103244.66;5081741;28;20028;-80
2023/05/26 08:17:44;;;;;;;0.10;0.10;;;;;;;15.41;52.94;103243.75;5077617;28;20108;-80
2023/05/26 08:20:10;;;;;;;0.32;0.32;;;;;;;15.51;53.09;103240.16;5079535;28;20035;-81
2023/05/26 08:22:38;;;;;;;0.70;0.70;;;;;;;15.60;52.17;103247.28;5079361;28;20028;-80
2023/05/26 08:25:04;;;;;;;0.10;0.10;;;;;;;15.65;52.20;103240.13;5078284;28;20077;-81
2023/05/26 08:27:30;;;;;;;0.63;0.63;;;;;;;15.76;51.72;103240.97;5078993;28;20032;-80
2023/05/26 08:29:57;;;;;;;0.10;0.10;;;;;;;15.86;51.98;103239.19;5077744;28;20060;-81
2023/05/26 08:32:23;;;;;;;0.15;0.15;;;;;;;15.89;51.26;103241.88;5079126;28;20029;-80
2023/05/26 08:34:49;;;;;;;0.28;0.28;;;;;;;15.94;51.32;103239.19;5081539;28;20099;-83
2023/05/26 08:37:17;;;;;;;0.10;0.10;;;;;;;16.01;50.78;103243.59;5077792;28;20055;-81
2023/05/26 08:39:43;;;;;;;0.10;0.10;;;;;;;16.10;51.21;103242.66;5077551;28;20040;-80
2023/05/26 08:42:18;;;;;;;0.10;0.10;;;;;;;16.15;49.82;103239.09;5079256;28;20103;-81
2023/05/26 08:44:44;;;;;;;0.38;0.38;;;;;;;16.25;50.95;103239.00;5084340;28;20071;-81
2023/05/26 08:47:11;;;;;;;0.22;0.22;;;;;;;16.35;50.17;103238.09;5079194;28;20110;-81
2023/05/26 08:49:45;;;;;;;1.83;1.73;;;;;;;16.43;50.44;103238.91;5088187;28;20028;-84
2023/05/26 08:52:14;;;;;;;0.10;0.10;;;;;;;16.49;50.00;103235.31;5079841;28;20122;-80
2023/05/26 08:54:41;;;;;;;0.68;0.68;;;;;;;16.52;49.78;103237.09;5077801;28;20029;-81
2023/05/26 08:57:08;;;;;;;0.10;0.10;;;;;;;16.56;49.57;103238.84;5076573;28;20059;-79
2023/05/26 08:59:37;;;;;;;0.08;0.08;;;;;;;16.65;49.53;103238.78;5074959;28;20039;-80
2023/05/26 09:02:03;;;;;;;2.83;0.80;;;;;;;16.71;49.51;103233.38;5080997;28;20059;-80
2023/05/26 09:04:30;;;;;;;0.10;0.10;;;;;;;16.82;48.83;103242.22;5091846;28;20028;-79
2023/05/26 09:06:57;;;;;;;0.10;0.10;;;;;;;16.85;47.83;103235.03;5092505;28;20092;-78
2023/05/26 09:09:24;;;;;;;0.22;0.22;;;;;;;16.93;48.70;103233.22;5089218;28;20043;-79
2023/05/26 09:11:51;;;;;;;0.10;0.10;;;;;;;16.93;45.82;103238.59;5080246;28;20020;-80
2023/05/26 09:14:20;;;;;;;0.55;0.55;;;;;;;17.00;47.05;103245.69;5079857;28;20464;-81
2023/05/26 09:16:46;;;;;;;0.25;0.25;;;;;;;17.06;47.58;103242.03;5079743;28;20028;-80
2023/05/26 09:19:14;;;;;;;0.85;0.85;;;;;;;17.12;47.45;103245.56;5080812;28;20029;-80
2023/05/26 09:21:47;;;;;;;0.10;0.10;;;;;;;17.20;46.93;103245.50;5080560;28;20024;-81
2023/05/26 09:24:16;;;;;;;0.10;0.10;;;;;;;17.25;47.39;103242.78;5080175;28;20043;-80
2023/05/26 09:26:44;;;;;;;0.10;0.10;;;;;;;17.30;47.58;103243.63;5076965;28;20459;-79
2023/05/26 09:29:10;;;;;;;0.00;0.00;;;;;;;17.40;47.69;103245.28;5073614;28;20552;-79
2023/05/26 09:31:52;;;;;;;0.10;0.10;;;;;;;17.54;46.42;103236.22;5072692;28;20432;-78
2023/05/26 09:34:22;;;;;;;0.20;0.20;;;;;;;17.60;47.28;103238.84;5073707;28;20021;-79
2023/05/26 09:36:49;;;;;;;0.30;0.30;;;;;;;17.73;47.27;103242.25;5072278;28;20115;-78
2023/05/26 09:39:16;;;;;;;0.10;0.10;;;;;;;17.83;47.32;103235.88;5073066;28;20097;-80
2023/05/26 09:41:44;;;;;;;0.10;0.10;;;;;;;17.99;46.88;103238.41;5073021;28;20035;-80
2023/05/26 09:44:13;;;;;;;0.38;0.38;;;;;;;18.08;46.29;103228.44;5071744;28;20495;-79
2023/05/26 09:46:40;;;;;;;0.10;0.10;;;;;;;18.17;46.25;103230.09;5075021;28;20657;-79
2023/05/26 09:49:09;;;;;;;0.10;0.10;;;;;;;18.26;46.10;103227.28;5077040;28;20056;-80
2023/05/26 09:51:36;;;;;;;0.32;0.32;;;;;;;18.35;45.46;103226.25;5074566;28;20060;-79
2023/05/26 09:54:02;;;;;;;0.08;0.08;;;;;;;18.40;45.44;103240.50;5091070;28;20039;-79
2023/05/26 09:56:34;;;;;;;0.10;0.10;;;;;;;18.50;44.51;103224.25;5093390;28;20020;-80
2023/05/26 09:59:02;;;;;;;;;;;;;;;18.68;45.32;103223.06;5078033;28;20028;-82
2023/05/26 10:01:29;;;;;;;0.10;0.10;;;;;;;18.65;44.83;103217.75;5078383;28;19912;-81
2023/05/26 10:03:56;;;;;;;0.75;0.75;;;;;;;18.76;45.24;103224.72;5075374;28;20502;-80
2023/05/26 10:06:23;;;;;;;0.10;0.10;;;;;;;18.81;44.69;103213.03;5075749;28;20104;-80
2023/05/26 10:08:52;;;;;;;15.60;2.15;;;;;;;18.88;45.13;103220.06;5074510;28;20035;-80
2023/05/26 10:11:20;;;;;;;0.10;0.10;;;;;;;18.97;45.22;103217.25;5087786;28;20128;-80
2023/05/26 10:13:47;;;;;;;0.30;0.20;;;;;;;19.05;44.63;103218.00;5086493;28;20036;-80
2023/05/26 10:16:13;;;;;;;0.13;0.13;;;;;;;19.10;44.42;103217.03;5078609;28;20111;-80
2023/05/26 10:18:40;;;;;;;0.13;0.13;;;;;;;19.12;43.58;103208.03;5076615;28;20123;-79
2023/05/26 10:21:11;;;;;;;0.32;0.20;;;;;;;19.16;43.28;103216.91;5071427;28;20036;-79
2023/05/26 10:23:44;;;;;;;1.10;1.05;;;;;;;19.18;43.82;103210.59;5077622;28;20052;-80
2023/05/26 10:26:26;;;;;;;0.10;0.10;;;;;;;19.17;43.44;103199.88;5073626;28;20071;-81
2023/05/26 10:31:33;;;;;;;0.30;0.30;;;;;;;19.22;43.61;103209.63;5157227;27;20744;-81
2023/05/26 10:33:59;;;;;;;0.10;0.10;;;;;;;19.23;42.85;103206.03;5130063;27;20035;-81
2023/05/26 10:36:26;;;;;;;0.10;0.10;;;;;;;19.34;43.48;103208.50;5118439;28;20106;-81
2023/05/26 10:38:54;;;;;;;0.80;0.80;;;;;;;19.36;40.82;103209.34;5112698;28;20031;-81
2023/05/26 10:41:39;;;;;;;1.50;0.75;;;;;;;19.52;43.00;103206.38;5106964;28;20687;-81
2023/05/26 10:44:05;;;;;;;0.17;0.17;;;;;;;19.47;43.05;103208.28;5106342;28;20103;-82
2023/05/26 10:47:01;;;;;;;2.17;0.85;;;;;;;19.54;42.79;103196.50;5091562;28;20127;-82
2023/05/26 10:49:33;;;;;;;0.30;0.30;;;;;;;19.55;42.62;103206.31;5109922;28;20082;-82
2023/05/26 10:52:06;;;;;;;0.10;0.10;;;;;;;19.61;42.82;103195.41;5107540;28;20028;-82
2023/05/26 10:54:32;;;;;;;1.52;1.42;;;;;;;19.66;42.12;103206.97;5114298;28;20031;-82
2023/05/26 10:56:58;;;;;;;0.13;0.13;;;;;;;19.75;42.55;103199.63;5110536;28;20031;-81
2023/05/26 10:59:39;;;;;;;0.10;0.10;;;;;;;19.89;42.34;103200.25;5114068;28;20056;-81
2023/05/26 11:02:07;;;;;;;0.08;0.08;;;;;;;19.90;42.08;103203.81;5113455;28;20031;-82
2023/05/26 11:04:42;;;;;;;0.13;0.13;;;;;;;20.01;42.42;103200.00;5111584;28;20020;-80
2023/05/26 11:07:24;;;;;;;0.10;0.10;;;;;;;20.07;41.59;103192.69;5112651;28;20035;-81
2023/05/26 11:10:06;;;;;;;0.10;0.10;;;;;;;20.10;41.38;103192.63;5115347;28;20028;-82
2023/05/26 11:12:54;;;;;;;0.10;0.10;;;;;;;20.18;41.40;103194.22;5112686;28;20038;-80
2023/05/26 11:15:36;;;;;;;0.57;0.57;;;;;;;20.20;41.95;103188.81;5112917;28;20030;-80
2023/05/26 11:18:06;;;;;;;1.08;1.08;;;;;;;20.20;42.19;103183.44;5113802;28;20050;-79
2023/05/26 11:20:32;;;;;;;0.10;0.10;;;;;;;20.28;42.47;103180.56;5113152;28;20118;-81
2023/05/26 11:22:59;;;;;;;0.28;0.28;;;;;;;20.33;42.49;103184.00;5115118;28;20042;-83
2023/05/26 11:25:26;;;;;;;0.10;0.10;;;;;;;20.40;42.58;103182.03;5110152;28;20425;-82
2023/05/26 11:27:53;;;;;;;0.13;0.13;;;;;;;20.46;42.81;103184.59;5111711;28;20035;-80
2023/05/26 11:30:20;;;;;;;0.10;0.10;;;;;;;20.53;42.46;103187.09;5116171;28;20036;-79
2023/05/26 11:32:47;;;;;;;0.10;0.10;;;;;;;20.58;42.72;103183.41;5109999;28;20024;-82
2023/05/26 11:35:30;;;;;;;0.10;0.10;;;;;;;20.69;42.43;103187.59;5116913;28;20032;-83